McCall, ID

8:58 PM MDT on October 25, 2014 (GMT -0600)
McCall | Change Station
CLOSE
Current Station
Airport
Location: McCall,
Elevation: 5020 ft
Nearby Weather Stations

Elev 5020 ft 44.89 °N, 116.10 °W | Updated 7 minutes ago

Partly Cloudy
Partly Cloudy
51 °F
Feels Like 51 °F
N
8
Wind Variable Wind from SSE

Today
High -- | Low -- °F
--% Chance of Precip.
Yesterday
High -- | Low -- °F
Precip. -- in
8:13 AM 6:42 PM
Waxing Crescent, 5% visible
Pressure 29.80 in
Visibility 10.0 miles
Clouds Few 7500 ft
Dew Point 33 °F
Humidity 50%
Rainfall 0.00 in
Snow Depth 0 in , 0 in , 3 in
UV 0 out of 12
Pollen 4.20 out of 12
Air Quality Not available.
Flu Activity No Activity
METAR KMYL 260251Z AUTO 15007KT 10SM FEW075 11/01 A2981 RMK AO2 SLP091 60000 T01060006 53000

More Conditions Fewer Conditions

Pressure 29.80 in
Visibility 10.0 miles
Clouds Few 7500 ft
Dew Point 33 °F
Humidity 50%
Rainfall 0.00 in
Snow Depth 0 in , 0 in , 3 in
UV 0 out of 12
Pollen 4.20 out of 12
Air Quality Not available.
Flu Activity No Activity
METAR KMYL 260251Z AUTO 15007KT 10SM FEW075 11/01 A2981 RMK AO2 SLP091 60000 T01060006 53000

More Conditions Fewer Conditions

10-Day Weather Forecast

Almanac

Astronomy

Oct. 25, 2014 Rise Set
Actual Time 8:13 AM MDT 6:42 PM MDT
Civil Twilight 7:43 AM MDT 7:12 PM MDT
Nautical Twilight 7:08 AM MDT 7:47 PM MDT
Astronomical Twilight 6:34 AM MDT 8:21 PM MDT
Moon 9:59 AM MDT (10/25) 8:05 PM MDT (10/25)
Length of Visible Light 11h 29m
Length of Day
10h 29m
Tomorrow will be 2m 53s shorter.
Waxing Crescent, 5% of the Moon is Illuminated
Today
Waxing Crescent
Oct 30
First Quarter
Nov 6
Full
Nov 14
Last Quarter
Nov 22
New

Today's Extremes

State Highs State Lows

Community

WunderPhotos

Upload Photos

1,765,086 photos uploaded!

Nearby

Snow Depth

Station Depth Elevation
Bear Basin 0 in 5350 ft
Long Valley 0 in 4890 ft
Brundage Reservoir 3 in 6300 ft
Squaw Flat 0 in 6240 ft
Secesh Summit 0 in 6520 ft

Earthquake Activity

City Distance Mag. Time & Date
No recent earthquake activity has been reported nearby.
Minimum magnitude displayed is 2.5.

Coastal Water Temperatures

Place Temperature
No Stations Reporting

Nearby Weather Stations